sensor_id;sensor_type;location;lat;lon;timestamp;temperature;humidity
16271;DHT22;8243;49.048;8.396;2022-12-29T00:01:37;12.00;46.40
16271;DHT22;8243;49.048;8.396;2022-12-29T00:04:03;12.00;46.80
16271;DHT22;8243;49.048;8.396;2022-12-29T00:06:29;12.00;46.50
16271;DHT22;8243;49.048;8.396;2022-12-29T00:08:55;12.10;46.70
16271;DHT22;8243;49.048;8.396;2022-12-29T00:11:23;12.00;47.20
16271;DHT22;8243;49.048;8.396;2022-12-29T00:13:50;12.00;47.00
16271;DHT22;8243;49.048;8.396;2022-12-29T00:16:35;12.00;47.20
16271;DHT22;8243;49.048;8.396;2022-12-29T00:19:01;12.00;47.70
16271;DHT22;8243;49.048;8.396;2022-12-29T00:21:27;12.00;47.90
16271;DHT22;8243;49.048;8.396;2022-12-29T00:24:19;12.10;47.80
16271;DHT22;8243;49.048;8.396;2022-12-29T00:29:41;12.10;47.90
16271;DHT22;8243;49.048;8.396;2022-12-29T00:32:25;12.10;48.20
16271;DHT22;8243;49.048;8.396;2022-12-29T00:35:11;12.10;48.00
16271;DHT22;8243;49.048;8.396;2022-12-29T00:37:41;12.20;48.20
16271;DHT22;8243;49.048;8.396;2022-12-29T00:40:26;12.30;47.70
16271;DHT22;8243;49.048;8.396;2022-12-29T00:43:10;12.20;47.80
16271;DHT22;8243;49.048;8.396;2022-12-29T00:45:54;12.30;47.80
16271;DHT22;8243;49.048;8.396;2022-12-29T00:48:19;12.30;47.50
16271;DHT22;8243;49.048;8.396;2022-12-29T00:51:05;12.40;47.50
16271;DHT22;8243;49.048;8.396;2022-12-29T00:53:31;12.30;47.70
16271;DHT22;8243;49.048;8.396;2022-12-29T00:55:57;12.30;48.80
16271;DHT22;8243;49.048;8.396;2022-12-29T00:58:23;12.30;49.50
16271;DHT22;8243;49.048;8.396;2022-12-29T01:00:48;12.30;50.90
16271;DHT22;8243;49.048;8.396;2022-12-29T01:03:14;12.20;52.00
16271;DHT22;8243;49.048;8.396;2022-12-29T01:05:39;12.20;53.30
16271;DHT22;8243;49.048;8.396;2022-12-29T01:08:05;12.10;54.30
16271;DHT22;8243;49.048;8.396;2022-12-29T01:10:30;12.10;55.30
16271;DHT22;8243;49.048;8.396;2022-12-29T01:12:56;12.10;57.20
16271;DHT22;8243;49.048;8.396;2022-12-29T01:15:21;12.10;58.40
16271;DHT22;8243;49.048;8.396;2022-12-29T01:17:47;12.00;60.10
16271;DHT22;8243;49.048;8.396;2022-12-29T01:20:13;11.90;61.00
16271;DHT22;8243;49.048;8.396;2022-12-29T01:22:39;11.90;61.20
16271;DHT22;8243;49.048;8.396;2022-12-29T01:25:05;11.90;61.60
16271;DHT22;8243;49.048;8.396;2022-12-29T01:27:31;11.80;61.70
16271;DHT22;8243;49.048;8.396;2022-12-29T01:29:57;11.80;62.20
16271;DHT22;8243;49.048;8.396;2022-12-29T01:32:22;11.80;62.10
16271;DHT22;8243;49.048;8.396;2022-12-29T01:34:48;11.80;62.30
16271;DHT22;8243;49.048;8.396;2022-12-29T01:37:14;11.80;62.20
16271;DHT22;8243;49.048;8.396;2022-12-29T01:39:39;11.80;61.90
16271;DHT22;8243;49.048;8.396;2022-12-29T01:42:16;11.80;62.20
16271;DHT22;8243;49.048;8.396;2022-12-29T01:47:40;11.80;61.60
16271;DHT22;8243;49.048;8.396;2022-12-29T01:50:12;11.80;61.70
16271;DHT22;8243;49.048;8.396;2022-12-29T01:52:44;11.80;61.90
16271;DHT22;8243;49.048;8.396;2022-12-29T01:55:12;11.80;62.10
16271;DHT22;8243;49.048;8.396;2022-12-29T01:57:41;11.80;61.90
16271;DHT22;8243;49.048;8.396;2022-12-29T02:00:11;11.90;61.60
16271;DHT22;8243;49.048;8.396;2022-12-29T02:02:37;11.90;61.30
16271;DHT22;8243;49.048;8.396;2022-12-29T02:05:17;11.90;61.20
16271;DHT22;8243;49.048;8.396;2022-12-29T02:07:44;12.00;61.00
16271;DHT22;8243;49.048;8.396;2022-12-29T02:10:10;12.00;60.90
16271;DHT22;8243;49.048;8.396;2022-12-29T02:12:36;12.00;60.60
16271;DHT22;8243;49.048;8.396;2022-12-29T02:15:03;12.00;60.70
16271;DHT22;8243;49.048;8.396;2022-12-29T02:17:53;12.00;61.00
16271;DHT22;8243;49.048;8.396;2022-12-29T02:20:58;11.90;61.30
16271;DHT22;8243;49.048;8.396;2022-12-29T02:23:41;11.90;61.00
16271;DHT22;8243;49.048;8.396;2022-12-29T02:34:23;12.00;60.70
16271;DHT22;8243;49.048;8.396;2022-12-29T02:37:03;12.00;60.40
16271;DHT22;8243;49.048;8.396;2022-12-29T02:39:40;12.00;60.30
16271;DHT22;8243;49.048;8.396;2022-12-29T02:45:02;12.00;60.00
16271;DHT22;8243;49.048;8.396;2022-12-29T02:47:36;12.10;59.60
16271;DHT22;8243;49.048;8.396;2022-12-29T02:50:38;12.10;59.60
16271;DHT22;8243;49.048;8.396;2022-12-29T02:53:07;12.10;61.70
16271;DHT22;8243;49.048;8.396;2022-12-29T02:55:34;12.00;64.70
16271;DHT22;8243;49.048;8.396;2022-12-29T03:00:36;11.80;68.70
16271;DHT22;8243;49.048;8.396;2022-12-29T03:03:16;11.70;70.30
16271;DHT22;8243;49.048;8.396;2022-12-29T03:08:45;11.70;69.60
16271;DHT22;8243;49.048;8.396;2022-12-29T03:11:14;11.60;70.70
16271;DHT22;8243;49.048;8.396;2022-12-29T03:14:09;11.60;71.30
16271;DHT22;8243;49.048;8.396;2022-12-29T03:17:00;11.60;71.40
16271;DHT22;8243;49.048;8.396;2022-12-29T03:19:36;11.60;70.50
16271;DHT22;8243;49.048;8.396;2022-12-29T03:22:06;11.70;69.40
16271;DHT22;8243;49.048;8.396;2022-12-29T03:24:54;11.70;69.30
16271;DHT22;8243;49.048;8.396;2022-12-29T03:27:25;11.90;67.50
16271;DHT22;8243;49.048;8.396;2022-12-29T03:29:56;11.90;67.50
16271;DHT22;8243;49.048;8.396;2022-12-29T03:32:27;12.00;66.40
16271;DHT22;8243;49.048;8.396;2022-12-29T03:34:54;12.10;66.40
16271;DHT22;8243;49.048;8.396;2022-12-29T03:37:24;12.10;65.70
16271;DHT22;8243;49.048;8.396;2022-12-29T03:39:51;12.00;65.30
16271;DHT22;8243;49.048;8.396;2022-12-29T03:42:19;12.00;64.50
16271;DHT22;8243;49.048;8.396;2022-12-29T03:44:47;12.00;64.00
16271;DHT22;8243;49.048;8.396;2022-12-29T03:47:13;12.00;62.80
16271;DHT22;8243;49.048;8.396;2022-12-29T03:49:40;12.00;62.60
16271;DHT22;8243;49.048;8.396;2022-12-29T03:52:06;11.80;62.50
16271;DHT22;8243;49.048;8.396;2022-12-29T03:54:32;11.70;62.10
16271;DHT22;8243;49.048;8.396;2022-12-29T03:56:58;11.70;62.20
16271;DHT22;8243;49.048;8.396;2022-12-29T03:59:24;11.60;62.00
16271;DHT22;8243;49.048;8.396;2022-12-29T04:01:49;11.60;62.10
16271;DHT22;8243;49.048;8.396;2022-12-29T04:04:15;11.50;61.90
16271;DHT22;8243;49.048;8.396;2022-12-29T04:06:40;11.60;61.50
16271;DHT22;8243;49.048;8.396;2022-12-29T04:09:06;11.60;61.10
16271;DHT22;8243;49.048;8.396;2022-12-29T04:11:32;11.70;60.60
16271;DHT22;8243;49.048;8.396;2022-12-29T04:13:58;11.70;60.30
16271;DHT22;8243;49.048;8.396;2022-12-29T04:16:23;11.70;60.20
16271;DHT22;8243;49.048;8.396;2022-12-29T04:18:49;11.80;59.80
16271;DHT22;8243;49.048;8.396;2022-12-29T04:21:14;11.80;59.50
16271;DHT22;8243;49.048;8.396;2022-12-29T04:23:40;11.80;59.60
16271;DHT22;8243;49.048;8.396;2022-12-29T04:26:07;11.80;59.80
16271;DHT22;8243;49.048;8.396;2022-12-29T04:28:33;11.90;59.20
16271;DHT22;8243;49.048;8.396;2022-12-29T04:30:58;11.90;58.70
16271;DHT22;8243;49.048;8.396;2022-12-29T04:33:25;11.90;58.80
16271;DHT22;8243;49.048;8.396;2022-12-29T04:35:50;11.90;58.90
16271;DHT22;8243;49.048;8.396;2022-12-29T04:38:18;11.80;59.00
16271;DHT22;8243;49.048;8.396;2022-12-29T04:40:44;11.70;59.00
16271;DHT22;8243;49.048;8.396;2022-12-29T04:43:10;11.80;58.70
16271;DHT22;8243;49.048;8.396;2022-12-29T04:45:37;11.80;58.50
16271;DHT22;8243;49.048;8.396;2022-12-29T04:48:03;11.80;58.20
16271;DHT22;8243;49.048;8.396;2022-12-29T04:50:28;11.80;57.80
16271;DHT22;8243;49.048;8.396;2022-12-29T04:52:54;11.80;57.80
16271;DHT22;8243;49.048;8.396;2022-12-29T04:55:20;11.90;57.60
16271;DHT22;8243;49.048;8.396;2022-12-29T04:57:46;11.90;57.00
16271;DHT22;8243;49.048;8.396;2022-12-29T05:00:12;12.00;57.00
16271;DHT22;8243;49.048;8.396;2022-12-29T05:02:38;12.00;56.40
16271;DHT22;8243;49.048;8.396;2022-12-29T05:05:04;12.00;56.80
16271;DHT22;8243;49.048;8.396;2022-12-29T05:07:30;12.00;56.70
16271;DHT22;8243;49.048;8.396;2022-12-29T05:09:55;12.00;56.70
16271;DHT22;8243;49.048;8.396;2022-12-29T05:12:21;12.00;56.40
16271;DHT22;8243;49.048;8.396;2022-12-29T05:14:46;12.10;56.60
16271;DHT22;8243;49.048;8.396;2022-12-29T05:17:12;12.00;56.80
16271;DHT22;8243;49.048;8.396;2022-12-29T05:19:37;12.10;57.00
16271;DHT22;8243;49.048;8.396;2022-12-29T05:22:04;12.00;56.60
16271;DHT22;8243;49.048;8.396;2022-12-29T05:24:29;12.10;56.20
16271;DHT22;8243;49.048;8.396;2022-12-29T05:26:55;12.10;56.50
16271;DHT22;8243;49.048;8.396;2022-12-29T05:29:20;12.10;57.10
16271;DHT22;8243;49.048;8.396;2022-12-29T05:31:46;12.20;56.70
16271;DHT22;8243;49.048;8.396;2022-12-29T05:34:11;12.20;56.50
16271;DHT22;8243;49.048;8.396;2022-12-29T05:36:37;12.20;56.20
16271;DHT22;8243;49.048;8.396;2022-12-29T05:39:03;12.30;56.40
16271;DHT22;8243;49.048;8.396;2022-12-29T05:41:28;12.30;56.20
16271;DHT22;8243;49.048;8.396;2022-12-29T05:43:54;12.30;55.90
16271;DHT22;8243;49.048;8.396;2022-12-29T05:46:19;12.30;55.90
16271;DHT22;8243;49.048;8.396;2022-12-29T05:48:45;12.30;56.10
16271;DHT22;8243;49.048;8.396;2022-12-29T05:51:11;12.30;56.20
16271;DHT22;8243;49.048;8.396;2022-12-29T05:53:36;12.40;55.80
16271;DHT22;8243;49.048;8.396;2022-12-29T05:56:02;12.30;55.90
16271;DHT22;8243;49.048;8.396;2022-12-29T05:58:27;12.40;55.60
16271;DHT22;8243;49.048;8.396;2022-12-29T06:00:53;12.30;55.90
16271;DHT22;8243;49.048;8.396;2022-12-29T06:03:19;12.30;56.50
16271;DHT22;8243;49.048;8.396;2022-12-29T06:05:45;12.20;56.40
16271;DHT22;8243;49.048;8.396;2022-12-29T06:08:11;12.20;56.60
16271;DHT22;8243;49.048;8.396;2022-12-29T06:10:37;12.10;56.80
16271;DHT22;8243;49.048;8.396;2022-12-29T06:13:02;12.20;57.10
16271;DHT22;8243;49.048;8.396;2022-12-29T06:15:31;12.10;56.80
16271;DHT22;8243;49.048;8.396;2022-12-29T06:17:57;12.30;56.40
16271;DHT22;8243;49.048;8.396;2022-12-29T06:20:22;12.30;55.90
16271;DHT22;8243;49.048;8.396;2022-12-29T06:22:48;12.30;55.50
16271;DHT22;8243;49.048;8.396;2022-12-29T06:25:14;12.40;55.00
16271;DHT22;8243;49.048;8.396;2022-12-29T06:27:40;12.40;54.70
16271;DHT22;8243;49.048;8.396;2022-12-29T06:30:06;12.40;54.50
16271;DHT22;8243;49.048;8.396;2022-12-29T06:32:32;12.40;54.20
16271;DHT22;8243;49.048;8.396;2022-12-29T06:34:57;12.50;53.70
16271;DHT22;8243;49.048;8.396;2022-12-29T06:37:23;12.50;53.00
16271;DHT22;8243;49.048;8.396;2022-12-29T06:39:48;12.50;52.50
16271;DHT22;8243;49.048;8.396;2022-12-29T06:42:14;12.50;52.10
16271;DHT22;8243;49.048;8.396;2022-12-29T06:44:40;12.50;51.80
16271;DHT22;8243;49.048;8.396;2022-12-29T06:47:05;12.50;51.10
16271;DHT22;8243;49.048;8.396;2022-12-29T06:49:31;12.50;50.60
16271;DHT22;8243;49.048;8.396;2022-12-29T06:51:56;12.40;50.80
16271;DHT22;8243;49.048;8.396;2022-12-29T06:54:23;12.30;51.20
16271;DHT22;8243;49.048;8.396;2022-12-29T06:56:49;12.30;51.20
16271;DHT22;8243;49.048;8.396;2022-12-29T06:59:14;12.30;50.90
16271;DHT22;8243;49.048;8.396;2022-12-29T07:01:40;12.20;51.30
16271;DHT22;8243;49.048;8.396;2022-12-29T07:04:05;12.20;51.10
16271;DHT22;8243;49.048;8.396;2022-12-29T07:06:31;12.30;50.70
16271;DHT22;8243;49.048;8.396;2022-12-29T07:08:57;12.30;50.50
16271;DHT22;8243;49.048;8.396;2022-12-29T07:11:23;12.30;50.20
16271;DHT22;8243;49.048;8.396;2022-12-29T07:13:49;12.40;50.60
16271;DHT22;8243;49.048;8.396;2022-12-29T07:16:14;12.40;49.80
16271;DHT22;8243;49.048;8.396;2022-12-29T07:18:40;12.40;49.50
16271;DHT22;8243;49.048;8.396;2022-12-29T07:21:05;12.40;49.40
16271;DHT22;8243;49.048;8.396;2022-12-29T07:23:31;12.40;48.80
16271;DHT22;8243;49.048;8.396;2022-12-29T07:26:07;12.40;49.30
16271;DHT22;8243;49.048;8.396;2022-12-29T07:28:34;12.30;50.00
16271;DHT22;8243;49.048;8.396;2022-12-29T07:31:01;12.20;50.40
16271;DHT22;8243;49.048;8.396;2022-12-29T07:33:31;12.20;50.70
16271;DHT22;8243;49.048;8.396;2022-12-29T07:35:57;12.20;49.60
16271;DHT22;8243;49.048;8.396;2022-12-29T07:38:23;12.20;48.70
16271;DHT22;8243;49.048;8.396;2022-12-29T07:40:48;12.20;49.00
16271;DHT22;8243;49.048;8.396;2022-12-29T07:43:14;12.20;48.40
16271;DHT22;8243;49.048;8.396;2022-12-29T07:45:40;12.20;48.30
16271;DHT22;8243;49.048;8.396;2022-12-29T07:48:06;12.20;49.70
16271;DHT22;8243;49.048;8.396;2022-12-29T07:50:34;12.30;49.80
16271;DHT22;8243;49.048;8.396;2022-12-29T07:52:59;12.20;49.30
16271;DHT22;8243;49.048;8.396;2022-12-29T07:55:25;12.20;48.80
16271;DHT22;8243;49.048;8.396;2022-12-29T07:57:53;12.30;47.80
16271;DHT22;8243;49.048;8.396;2022-12-29T08:00:18;12.40;47.10
16271;DHT22;8243;49.048;8.396;2022-12-29T08:02:44;12.40;46.30
16271;DHT22;8243;49.048;8.396;2022-12-29T08:05:09;12.40;46.70
16271;DHT22;8243;49.048;8.396;2022-12-29T08:07:35;12.40;46.10
16271;DHT22;8243;49.048;8.396;2022-12-29T08:10:02;12.40;45.80
16271;DHT22;8243;49.048;8.396;2022-12-29T08:12:27;12.40;45.80
16271;DHT22;8243;49.048;8.396;2022-12-29T08:14:53;12.40;45.80
16271;DHT22;8243;49.048;8.396;2022-12-29T08:17:18;12.40;45.80
16271;DHT22;8243;49.048;8.396;2022-12-29T08:19:44;12.50;45.80
16271;DHT22;8243;49.048;8.396;2022-12-29T08:22:10;12.60;45.10
16271;DHT22;8243;49.048;8.396;2022-12-29T08:24:35;12.70;44.80
16271;DHT22;8243;49.048;8.396;2022-12-29T08:27:03;12.80;43.80
16271;DHT22;8243;49.048;8.396;2022-12-29T08:29:28;12.90;43.20
16271;DHT22;8243;49.048;8.396;2022-12-29T08:31:54;12.90;42.70
16271;DHT22;8243;49.048;8.396;2022-12-29T08:34:19;13.00;42.20
16271;DHT22;8243;49.048;8.396;2022-12-29T08:36:45;13.10;41.70
16271;DHT22;8243;49.048;8.396;2022-12-29T08:39:10;13.10;41.70
16271;DHT22;8243;49.048;8.396;2022-12-29T08:41:36;13.10;42.10
16271;DHT22;8243;49.048;8.396;2022-12-29T08:44:01;13.10;41.70
16271;DHT22;8243;49.048;8.396;2022-12-29T08:46:27;13.20;41.10
16271;DHT22;8243;49.048;8.396;2022-12-29T08:48:53;13.30;40.60
16271;DHT22;8243;49.048;8.396;2022-12-29T08:51:19;13.30;40.10
16271;DHT22;8243;49.048;8.396;2022-12-29T08:53:45;13.40;40.00
16271;DHT22;8243;49.048;8.396;2022-12-29T08:56:10;13.40;40.20
16271;DHT22;8243;49.048;8.396;2022-12-29T08:58:37;13.50;39.80
16271;DHT22;8243;49.048;8.396;2022-12-29T09:01:02;13.40;39.60
16271;DHT22;8243;49.048;8.396;2022-12-29T09:03:28;13.40;39.70
16271;DHT22;8243;49.048;8.396;2022-12-29T09:05:54;13.40;39.50
16271;DHT22;8243;49.048;8.396;2022-12-29T09:08:21;13.50;39.50
16271;DHT22;8243;49.048;8.396;2022-12-29T09:10:46;13.40;39.20
16271;DHT22;8243;49.048;8.396;2022-12-29T09:13:13;13.40;39.60
16271;DHT22;8243;49.048;8.396;2022-12-29T09:15:39;13.60;39.20
16271;DHT22;8243;49.048;8.396;2022-12-29T09:18:05;14.50;35.60
16271;DHT22;8243;49.048;8.396;2022-12-29T09:20:31;15.30;31.80
16271;DHT22;8243;49.048;8.396;2022-12-29T09:22:57;15.50;31.20
16271;DHT22;8243;49.048;8.396;2022-12-29T09:25:22;15.30;30.40
16271;DHT22;8243;49.048;8.396;2022-12-29T09:27:50;14.80;31.60
16271;DHT22;8243;49.048;8.396;2022-12-29T09:30:19;14.50;32.80
16271;DHT22;8243;49.048;8.396;2022-12-29T09:32:45;14.30;33.90
16271;DHT22;8243;49.048;8.396;2022-12-29T09:35:12;14.10;35.50
16271;DHT22;8243;49.048;8.396;2022-12-29T09:37:38;14.00;36.10
16271;DHT22;8243;49.048;8.396;2022-12-29T09:40:05;14.00;36.10
16271;DHT22;8243;49.048;8.396;2022-12-29T09:42:38;14.10;36.70
16271;DHT22;8243;49.048;8.396;2022-12-29T09:47:31;14.10;36.70
16271;DHT22;8243;49.048;8.396;2022-12-29T09:50:43;14.00;37.90
16271;DHT22;8243;49.048;8.396;2022-12-29T09:52:50;14.10;37.40
16271;DHT22;8243;49.048;8.396;2022-12-29T09:55:22;14.20;37.80
16271;DHT22;8243;49.048;8.396;2022-12-29T10:00:22;14.10;38.50
16271;DHT22;8243;49.048;8.396;2022-12-29T10:05:23;13.90;44.20
16271;DHT22;8243;49.048;8.396;2022-12-29T10:08:14;13.90;43.60
16271;DHT22;8243;49.048;8.396;2022-12-29T10:13:55;13.70;45.10
16271;DHT22;8243;49.048;8.396;2022-12-29T10:16:35;13.70;45.30
16271;DHT22;8243;49.048;8.396;2022-12-29T10:22:32;13.40;49.00
16271;DHT22;8243;49.048;8.396;2022-12-29T10:24:56;13.40;49.90
16271;DHT22;8243;49.048;8.396;2022-12-29T10:27:30;13.30;51.10
16271;DHT22;8243;49.048;8.396;2022-12-29T10:29:58;13.20;52.60
16271;DHT22;8243;49.048;8.396;2022-12-29T10:32:35;13.20;54.00
16271;DHT22;8243;49.048;8.396;2022-12-29T10:35:12;13.10;57.20
16271;DHT22;8243;49.048;8.396;2022-12-29T10:37:46;13.00;61.50
16271;DHT22;8243;49.048;8.396;2022-12-29T10:40:49;12.90;64.10
16271;DHT22;8243;49.048;8.396;2022-12-29T10:45:53;13.00;66.00
16271;DHT22;8243;49.048;8.396;2022-12-29T10:48:22;12.90;66.60
16271;DHT22;8243;49.048;8.396;2022-12-29T10:50:50;12.90;67.70
16271;DHT22;8243;49.048;8.396;2022-12-29T10:53:23;12.80;69.40
16271;DHT22;8243;49.048;8.396;2022-12-29T10:55:50;12.80;71.00
16271;DHT22;8243;49.048;8.396;2022-12-29T10:58:17;12.80;72.00
16271;DHT22;8243;49.048;8.396;2022-12-29T11:00:50;12.80;72.80
16271;DHT22;8243;49.048;8.396;2022-12-29T11:08:46;13.50;71.10
16271;DHT22;8243;49.048;8.396;2022-12-29T11:11:23;13.60;67.60
16271;DHT22;8243;49.048;8.396;2022-12-29T11:13:50;13.70;64.60
16271;DHT22;8243;49.048;8.396;2022-12-29T11:16:33;13.70;62.10
16271;DHT22;8243;49.048;8.396;2022-12-29T11:19:00;13.90;62.50
16271;DHT22;8243;49.048;8.396;2022-12-29T11:21:31;13.90;60.80
16271;DHT22;8243;49.048;8.396;2022-12-29T11:24:03;13.90;59.50
16271;DHT22;8243;49.048;8.396;2022-12-29T11:26:30;13.90;58.20
16271;DHT22;8243;49.048;8.396;2022-12-29T11:31:40;14.20;56.80
16271;DHT22;8243;49.048;8.396;2022-12-29T11:34:07;14.50;55.40
16271;DHT22;8243;49.048;8.396;2022-12-29T11:36:33;14.70;53.50
16271;DHT22;8243;49.048;8.396;2022-12-29T11:39:00;14.90;52.50
16271;DHT22;8243;49.048;8.396;2022-12-29T11:41:27;15.10;51.70
16271;DHT22;8243;49.048;8.396;2022-12-29T11:43:56;15.10;48.00
16271;DHT22;8243;49.048;8.396;2022-12-29T11:46:26;15.10;48.00
16271;DHT22;8243;49.048;8.396;2022-12-29T11:48:53;15.20;47.20
16271;DHT22;8243;49.048;8.396;2022-12-29T11:51:26;15.10;46.90
16271;DHT22;8243;49.048;8.396;2022-12-29T11:53:57;15.10;45.80
16271;DHT22;8243;49.048;8.396;2022-12-29T11:56:42;15.20;45.60
16271;DHT22;8243;49.048;8.396;2022-12-29T12:01:53;15.00;43.90
16271;DHT22;8243;49.048;8.396;2022-12-29T12:04:22;14.90;44.20
16271;DHT22;8243;49.048;8.396;2022-12-29T12:06:58;14.70;44.10
16271;DHT22;8243;49.048;8.396;2022-12-29T12:09:29;14.70;43.90
16271;DHT22;8243;49.048;8.396;2022-12-29T12:11:57;14.50;44.70
16271;DHT22;8243;49.048;8.396;2022-12-29T12:14:43;14.40;44.00
16271;DHT22;8243;49.048;8.396;2022-12-29T12:17:15;14.30;44.30
16271;DHT22;8243;49.048;8.396;2022-12-29T12:19:57;14.30;45.10
16271;DHT22;8243;49.048;8.396;2022-12-29T12:22:31;14.20;44.00
16271;DHT22;8243;49.048;8.396;2022-12-29T12:27:41;14.20;44.00
16271;DHT22;8243;49.048;8.396;2022-12-29T12:30:24;14.20;44.10
16271;DHT22;8243;49.048;8.396;2022-12-29T12:33:03;14.20;43.50
16271;DHT22;8243;49.048;8.396;2022-12-29T12:35:32;14.10;44.30
16271;DHT22;8243;49.048;8.396;2022-12-29T12:41:11;14.30;43.80
16271;DHT22;8243;49.048;8.396;2022-12-29T12:43:54;14.20;43.60
16271;DHT22;8243;49.048;8.396;2022-12-29T12:46:49;14.20;44.40
16271;DHT22;8243;49.048;8.396;2022-12-29T12:49:34;14.10;44.60
16271;DHT22;8243;49.048;8.396;2022-12-29T12:52:08;14.10;44.90
16271;DHT22;8243;49.048;8.396;2022-12-29T12:55:06;14.00;45.70
16271;DHT22;8243;49.048;8.396;2022-12-29T13:00:20;14.00;48.10
16271;DHT22;8243;49.048;8.396;2022-12-29T13:03:17;14.10;48.30
16271;DHT22;8243;49.048;8.396;2022-12-29T13:06:04;14.00;48.30
16271;DHT22;8243;49.048;8.396;2022-12-29T13:08:57;14.00;48.40
16271;DHT22;8243;49.048;8.396;2022-12-29T13:11:46;13.90;49.00
16271;DHT22;8243;49.048;8.396;2022-12-29T13:14:36;13.80;49.60
16271;DHT22;8243;49.048;8.396;2022-12-29T13:22:43;13.90;50.00
16271;DHT22;8243;49.048;8.396;2022-12-29T13:37:12;13.80;50.00
16271;DHT22;8243;49.048;8.396;2022-12-29T13:39:56;13.70;51.30
16271;DHT22;8243;49.048;8.396;2022-12-29T13:42:22;13.60;55.80
16271;DHT22;8243;49.048;8.396;2022-12-29T13:44:58;13.30;59.70
16271;DHT22;8243;49.048;8.396;2022-12-29T13:49:58;13.00;64.90
16271;DHT22;8243;49.048;8.396;2022-12-29T13:52:42;12.80;67.30
16271;DHT22;8243;49.048;8.396;2022-12-29T13:55:35;12.70;67.20
16271;DHT22;8243;49.048;8.396;2022-12-29T13:58:09;12.50;69.70
16271;DHT22;8243;49.048;8.396;2022-12-29T14:00:58;12.40;73.10
16271;DHT22;8243;49.048;8.396;2022-12-29T14:06:15;12.10;90.20
16271;DHT22;8243;49.048;8.396;2022-12-29T14:08:42;11.90;95.40
16271;DHT22;8243;49.048;8.396;2022-12-29T14:11:10;11.80;99.60
16271;DHT22;8243;49.048;8.396;2022-12-29T14:13:41;11.70;99.90
16271;DHT22;8243;49.048;8.396;2022-12-29T14:16:21;11.60;99.90
16271;DHT22;8243;49.048;8.396;2022-12-29T14:18:49;11.50;99.90
16271;DHT22;8243;49.048;8.396;2022-12-29T14:21:18;11.40;99.90
16271;DHT22;8243;49.048;8.396;2022-12-29T14:23:49;11.40;99.90
16271;DHT22;8243;49.048;8.396;2022-12-29T14:26:33;11.30;99.90
16271;DHT22;8243;49.048;8.396;2022-12-29T14:31:51;11.20;99.90
16271;DHT22;8243;49.048;8.396;2022-12-29T14:36:53;11.10;99.90
16271;DHT22;8243;49.048;8.396;2022-12-29T14:39:43;11.00;99.90
16271;DHT22;8243;49.048;8.396;2022-12-29T14:42:12;10.90;99.90
16271;DHT22;8243;49.048;8.396;2022-12-29T14:45:00;10.90;99.90
16271;DHT22;8243;49.048;8.396;2022-12-29T14:47:35;10.80;99.90
16271;DHT22;8243;49.048;8.396;2022-12-29T14:50:13;10.70;99.90
16271;DHT22;8243;49.048;8.396;2022-12-29T14:55:40;10.60;99.90
16271;DHT22;8243;49.048;8.396;2022-12-29T14:58:20;10.60;99.90
16271;DHT22;8243;49.048;8.396;2022-12-29T15:00:48;10.60;99.90
16271;DHT22;8243;49.048;8.396;2022-12-29T15:03:20;10.60;99.90
16271;DHT22;8243;49.048;8.396;2022-12-29T15:08:32;10.50;99.90
16271;DHT22;8243;49.048;8.396;2022-12-29T15:11:12;10.50;99.90
16271;DHT22;8243;49.048;8.396;2022-12-29T15:13:41;10.50;99.90
16271;DHT22;8243;49.048;8.396;2022-12-29T15:18:52;10.50;99.90
16271;DHT22;8243;49.048;8.396;2022-12-29T15:21:26;10.40;99.90
16271;DHT22;8243;49.048;8.396;2022-12-29T15:23:52;10.40;99.90
16271;DHT22;8243;49.048;8.396;2022-12-29T15:26:18;10.40;99.90
16271;DHT22;8243;49.048;8.396;2022-12-29T15:28:49;10.40;99.90
16271;DHT22;8243;49.048;8.396;2022-12-29T15:31:25;10.30;99.90
16271;DHT22;8243;49.048;8.396;2022-12-29T15:33:53;10.20;99.90
16271;DHT22;8243;49.048;8.396;2022-12-29T15:36:29;10.20;99.90
16271;DHT22;8243;49.048;8.396;2022-12-29T15:39:27;10.00;99.90
16271;DHT22;8243;49.048;8.396;2022-12-29T15:41:56;9.90;99.90
16271;DHT22;8243;49.048;8.396;2022-12-29T15:44:34;9.90;99.90
16271;DHT22;8243;49.048;8.396;2022-12-29T15:47:04;9.90;99.90
16271;DHT22;8243;49.048;8.396;2022-12-29T15:49:31;9.80;99.90
16271;DHT22;8243;49.048;8.396;2022-12-29T15:51:57;9.70;99.90
16271;DHT22;8243;49.048;8.396;2022-12-29T15:54:24;9.70;99.90
16271;DHT22;8243;49.048;8.396;2022-12-29T15:56:51;9.70;99.90
16271;DHT22;8243;49.048;8.396;2022-12-29T15:59:32;9.70;99.90
16271;DHT22;8243;49.048;8.396;2022-12-29T16:01:59;9.70;99.90
16271;DHT22;8243;49.048;8.396;2022-12-29T16:04:30;9.70;99.90
16271;DHT22;8243;49.048;8.396;2022-12-29T16:07:04;9.60;99.90
16271;DHT22;8243;49.048;8.396;2022-12-29T16:09:36;9.50;99.90
16271;DHT22;8243;49.048;8.396;2022-12-29T16:12:07;9.50;99.90
16271;DHT22;8243;49.048;8.396;2022-12-29T16:14:40;9.50;99.90
16271;DHT22;8243;49.048;8.396;2022-12-29T16:17:10;9.50;99.90
16271;DHT22;8243;49.048;8.396;2022-12-29T16:19:39;9.60;99.90
16271;DHT22;8243;49.048;8.396;2022-12-29T16:22:11;9.70;99.90
16271;DHT22;8243;49.048;8.396;2022-12-29T16:24:39;9.70;99.90
16271;DHT22;8243;49.048;8.396;2022-12-29T16:27:31;9.80;99.90
16271;DHT22;8243;49.048;8.396;2022-12-29T16:29:58;9.80;99.90
16271;DHT22;8243;49.048;8.396;2022-12-29T16:32:30;9.80;99.90
16271;DHT22;8243;49.048;8.396;2022-12-29T16:35:26;9.80;99.90
16271;DHT22;8243;49.048;8.396;2022-12-29T16:38:17;9.80;99.90
16271;DHT22;8243;49.048;8.396;2022-12-29T16:40:57;9.80;99.90
16271;DHT22;8243;49.048;8.396;2022-12-29T16:43:31;9.80;99.90
16271;DHT22;8243;49.048;8.396;2022-12-29T16:48:35;9.80;99.90
16271;DHT22;8243;49.048;8.396;2022-12-29T16:51:11;9.80;99.90
16271;DHT22;8243;49.048;8.396;2022-12-29T16:53:40;9.80;99.90
16271;DHT22;8243;49.048;8.396;2022-12-29T16:56:38;9.90;99.90
16271;DHT22;8243;49.048;8.396;2022-12-29T17:01:46;9.90;99.90
16271;DHT22;8243;49.048;8.396;2022-12-29T17:04:13;9.90;99.90
16271;DHT22;8243;49.048;8.396;2022-12-29T17:06:39;10.00;99.90
16271;DHT22;8243;49.048;8.396;2022-12-29T17:09:23;10.00;99.90
16271;DHT22;8243;49.048;8.396;2022-12-29T17:11:52;10.00;99.90
16271;DHT22;8243;49.048;8.396;2022-12-29T17:19:59;10.00;99.90
16271;DHT22;8243;49.048;8.396;2022-12-29T17:22:28;10.00;99.90
16271;DHT22;8243;49.048;8.396;2022-12-29T17:24:56;10.00;99.90
16271;DHT22;8243;49.048;8.396;2022-12-29T17:27:43;10.00;99.90
16271;DHT22;8243;49.048;8.396;2022-12-29T17:30:19;10.00;99.90
16271;DHT22;8243;49.048;8.396;2022-12-29T17:32:50;10.00;99.90
16271;DHT22;8243;49.048;8.396;2022-12-29T17:35:18;10.00;99.90
16271;DHT22;8243;49.048;8.396;2022-12-29T17:37:45;10.00;99.90
16271;DHT22;8243;49.048;8.396;2022-12-29T17:40:19;10.00;99.90
16271;DHT22;8243;49.048;8.396;2022-12-29T17:42:47;10.00;99.90
16271;DHT22;8243;49.048;8.396;2022-12-29T17:45:16;10.00;99.90
16271;DHT22;8243;49.048;8.396;2022-12-29T17:47:42;9.90;99.90
16271;DHT22;8243;49.048;8.396;2022-12-29T17:50:13;9.90;99.90
16271;DHT22;8243;49.048;8.396;2022-12-29T17:52:39;9.90;99.90
16271;DHT22;8243;49.048;8.396;2022-12-29T17:55:05;9.90;99.90